createdAt,value
2022-11-22T00:01:22.935Z,5.17
2022-11-22T00:03:51.372Z,4.67
2022-11-22T00:06:19.801Z,6.00
2022-11-22T00:08:48.510Z,4.47
2022-11-22T00:11:18.368Z,5.37
2022-11-22T00:13:46.870Z,4.97
2022-11-22T00:16:15.255Z,5.90
2022-11-22T00:18:43.712Z,6.23
2022-11-22T00:21:12.052Z,3.30
2022-11-22T00:23:40.495Z,5.93
2022-11-22T00:26:12.199Z,4.57
2022-11-22T00:28:42.268Z,6.33
2022-11-22T00:31:10.583Z,5.97
2022-11-22T00:33:39.069Z,4.57
2022-11-22T00:36:07.687Z,5.23
2022-11-22T00:38:36.060Z,4.67
2022-11-22T00:41:04.732Z,4.40
2022-11-22T00:43:33.045Z,4.07
2022-11-22T00:46:02.911Z,4.53
2022-11-22T00:48:31.304Z,4.00
2022-11-22T00:50:59.770Z,4.63
2022-11-22T00:53:28.124Z,5.70
2022-11-22T00:55:56.483Z,5.77
2022-11-22T00:58:25.117Z,4.27
2022-11-22T01:00:56.507Z,4.07
2022-11-22T01:03:27.115Z,3.50
2022-11-22T01:05:55.438Z,3.40
2022-11-22T01:08:24.249Z,4.33
2022-11-22T01:10:58.401Z,5.67
2022-11-22T01:13:27.205Z,4.43
2022-11-22T01:15:55.758Z,4.67
2022-11-22T01:18:24.048Z,4.17
2022-11-22T01:20:53.946Z,3.07
2022-11-22T01:23:22.370Z,4.07
2022-11-22T01:25:51.125Z,3.23
2022-11-22T01:28:20.196Z,2.90
2022-11-22T01:30:52.327Z,3.60
2022-11-22T01:33:21.593Z,3.03
2022-11-22T01:35:49.995Z,4.27
2022-11-22T01:38:19.795Z,2.93
2022-11-22T01:40:48.220Z,3.90
2022-11-22T01:43:20.094Z,3.40
2022-11-22T01:45:51.699Z,2.60
2022-11-22T01:48:41.913Z,2.70
2022-11-22T01:51:19.955Z,2.20
2022-11-22T01:53:50.638Z,2.20
2022-11-22T01:56:21.353Z,2.03
2022-11-22T01:58:54.009Z,2.97
2022-11-22T02:01:22.731Z,1.93
2022-11-22T02:03:55.414Z,2.00
2022-11-22T02:06:24.680Z,1.37
2022-11-22T02:09:00.487Z,1.70
2022-11-22T02:11:34.091Z,1.43
2022-11-22T02:14:03.852Z,1.10
2022-11-22T02:16:33.067Z,0.80
2022-11-22T02:19:01.520Z,0.70
2022-11-22T02:21:30.531Z,0.70
2022-11-22T02:24:06.808Z,2.80
2022-11-22T02:26:37.421Z,0.70
2022-11-22T02:29:09.187Z,2.20
2022-11-22T02:31:42.513Z,0.60
2022-11-22T02:34:11.488Z,0.70
2022-11-22T02:36:44.104Z,1.93
2022-11-22T02:39:15.606Z,0.60
2022-11-22T02:41:45.997Z,0.73
2022-11-22T02:44:15.559Z,0.73
2022-11-22T02:46:52.138Z,1.90
2022-11-22T02:49:22.115Z,0.60
2022-11-22T02:51:51.691Z,0.60
2022-11-22T02:54:20.260Z,0.83
2022-11-22T02:56:50.128Z,0.97
2022-11-22T02:59:18.511Z,0.93
2022-11-22T03:01:48.655Z,0.70
2022-11-22T03:04:25.177Z,1.03
2022-11-22T03:06:55.739Z,1.00
2022-11-22T03:09:24.375Z,0.70
2022-11-22T03:11:54.978Z,0.70
2022-11-22T03:14:23.653Z,0.50
2022-11-22T03:16:52.454Z,0.70
2022-11-22T03:19:21.228Z,1.37
2022-11-22T03:21:49.519Z,0.87
2022-11-22T03:24:19.507Z,1.47
2022-11-22T03:26:49.507Z,1.00
2022-11-22T03:29:19.830Z,0.70
2022-11-22T03:31:48.228Z,2.10
2022-11-22T03:34:17.123Z,0.80
2022-11-22T03:36:45.830Z,0.80
2022-11-22T03:39:14.320Z,0.70
2022-11-22T03:41:42.820Z,0.70
2022-11-22T03:44:11.360Z,0.90
2022-11-22T03:46:41.190Z,1.20
2022-11-22T03:49:09.589Z,1.27
2022-11-22T03:51:37.971Z,0.97
2022-11-22T03:54:06.863Z,1.70
2022-11-22T03:56:35.272Z,1.33
2022-11-22T03:59:03.645Z,0.70
2022-11-22T04:01:32.106Z,1.80
2022-11-22T04:04:01.914Z,0.70
2022-11-22T04:06:30.390Z,2.40
2022-11-22T04:08:58.807Z,0.80
2022-11-22T04:11:27.355Z,0.87
2022-11-22T04:14:13.313Z,1.10
2022-11-22T04:16:41.754Z,0.83
2022-11-22T04:19:11.667Z,0.70
2022-11-22T04:21:39.035Z,1.90
2022-11-22T04:24:26.864Z,0.90
2022-11-22T04:26:55.757Z,2.10
2022-11-22T04:29:24.355Z,0.70
2022-11-22T04:32:11.098Z,0.80
2022-11-22T04:34:40.867Z,1.90
2022-11-22T04:37:09.476Z,1.00
2022-11-22T04:39:37.985Z,1.33
2022-11-22T04:42:23.937Z,1.50
2022-11-22T04:44:52.311Z,1.40
2022-11-22T04:47:38.346Z,1.20
2022-11-22T04:50:23.935Z,1.07
2022-11-22T04:52:57.938Z,2.43
2022-11-22T04:55:26.502Z,0.80
2022-11-22T04:57:59.536Z,0.70
2022-11-22T05:00:29.060Z,0.90
2022-11-22T05:02:57.421Z,0.97
2022-11-22T05:05:28.034Z,0.87
2022-11-22T05:07:56.962Z,0.80
2022-11-22T05:10:27.058Z,2.00
2022-11-22T05:12:56.417Z,0.70
2022-11-22T05:15:24.848Z,0.80
2022-11-22T05:17:53.229Z,2.97
2022-11-22T05:20:21.578Z,7.67
2022-11-22T05:23:08.813Z,6.20
2022-11-22T05:25:37.141Z,4.00
2022-11-22T05:28:05.675Z,2.03
2022-11-22T05:30:34.166Z,1.50
2022-11-22T05:33:02.525Z,0.90
2022-11-22T05:35:30.928Z,1.50
2022-11-22T05:38:00.818Z,2.57
2022-11-22T05:40:29.448Z,2.77
2022-11-22T05:42:58.678Z,19.17
2022-11-22T05:45:27.388Z,14.63
2022-11-22T05:47:56.824Z,8.90
2022-11-22T05:50:25.240Z,4.53
2022-11-22T05:52:53.664Z,6.40
2022-11-22T05:55:23.460Z,6.83
2022-11-22T05:57:51.824Z,5.03
2022-11-22T06:00:20.896Z,3.40
2022-11-22T06:02:49.294Z,2.13
2022-11-22T06:05:18.040Z,2.43
2022-11-22T06:07:47.498Z,1.33
2022-11-22T06:10:16.239Z,1.13
2022-11-22T06:12:46.049Z,0.70
2022-11-22T06:15:16.025Z,0.70
2022-11-22T06:17:45.002Z,0.60
2022-11-22T06:20:14.023Z,0.40
2022-11-22T06:22:42.398Z,0.60
2022-11-22T06:25:11.898Z,0.40
2022-11-22T06:27:40.318Z,1.07
2022-11-22T06:30:11.404Z,0.43
2022-11-22T06:32:39.717Z,0.53
2022-11-22T06:35:09.244Z,1.17
2022-11-22T06:37:37.665Z,1.40
2022-11-22T06:40:08.507Z,1.10
2022-11-22T06:42:37.046Z,1.03
2022-11-22T06:45:06.037Z,1.30
2022-11-22T06:47:35.895Z,1.33
2022-11-22T06:50:04.998Z,1.57
2022-11-22T06:52:33.473Z,1.13
2022-11-22T06:55:11.910Z,1.00
2022-11-22T06:57:51.915Z,0.90
2022-11-22T07:00:20.869Z,0.80
2022-11-22T07:02:50.893Z,1.03
2022-11-22T07:05:25.777Z,1.50
2022-11-22T07:07:59.174Z,1.30
2022-11-22T07:10:31.307Z,1.67
2022-11-22T07:12:59.767Z,2.90
2022-11-22T07:15:28.190Z,2.30
2022-11-22T07:17:57.999Z,2.20
2022-11-22T07:20:26.363Z,1.67
2022-11-22T07:22:54.756Z,1.30
2022-11-22T07:25:23.528Z,3.70
2022-11-22T07:27:53.978Z,2.47
2022-11-22T07:30:22.465Z,1.50
2022-11-22T07:32:50.880Z,1.40
2022-11-22T07:35:20.986Z,2.70
2022-11-22T07:37:49.471Z,2.53
2022-11-22T07:40:18.397Z,2.87
2022-11-22T07:42:46.863Z,2.17
2022-11-22T07:45:15.519Z,4.80
2022-11-22T07:47:44.000Z,4.30
2022-11-22T07:50:13.305Z,4.10
2022-11-22T07:52:43.145Z,3.50
2022-11-22T07:55:14.262Z,2.80
2022-11-22T07:57:43.097Z,4.83
2022-11-22T08:00:13.427Z,4.37
2022-11-22T08:02:41.855Z,3.10
2022-11-22T08:05:10.753Z,5.00
2022-11-22T08:07:39.602Z,2.30
2022-11-22T08:10:11.007Z,4.07
2022-11-22T08:12:39.647Z,4.87
2022-11-22T08:15:08.742Z,8.37
2022-11-22T08:17:38.420Z,8.97
2022-11-22T08:20:09.936Z,9.30
2022-11-22T08:22:39.400Z,9.07
2022-11-22T08:25:12.731Z,3.20
2022-11-22T08:27:42.254Z,1.90
2022-11-22T08:30:12.523Z,3.77
2022-11-22T08:32:41.058Z,3.43
2022-11-22T08:35:10.437Z,3.63
2022-11-22T08:37:38.817Z,2.10
2022-11-22T08:40:10.155Z,1.50
2022-11-22T08:42:38.602Z,1.30
2022-11-22T08:45:08.299Z,0.73
2022-11-22T08:47:36.689Z,0.70
2022-11-22T08:50:05.994Z,0.77
2022-11-22T08:52:36.018Z,0.60
2022-11-22T08:55:04.696Z,0.60
2022-11-22T08:57:34.556Z,0.90
2022-11-22T09:00:02.923Z,1.20
2022-11-22T09:02:31.373Z,1.20
2022-11-22T09:04:59.735Z,1.00
2022-11-22T09:10:18.719Z,0.93
2022-11-22T09:12:48.711Z,0.70
2022-11-22T09:15:17.614Z,0.93
2022-11-22T09:17:46.389Z,1.43
2022-11-22T09:20:15.170Z,0.97
2022-11-22T09:22:43.581Z,1.40
2022-11-22T09:25:12.183Z,5.30
2022-11-22T09:27:40.533Z,1.77
2022-11-22T09:30:11.746Z,1.07
2022-11-22T09:32:40.145Z,1.10
2022-11-22T09:35:08.904Z,0.80
2022-11-22T09:37:37.361Z,0.67
2022-11-22T09:40:06.714Z,1.50
2022-11-22T09:42:52.622Z,2.17
2022-11-22T09:45:49.331Z,1.30
2022-11-22T09:48:38.340Z,0.73
2022-11-22T09:51:11.402Z,2.40
2022-11-22T09:53:44.305Z,0.77
2022-11-22T09:56:14.864Z,3.33
2022-11-22T09:58:48.768Z,1.77
2022-11-22T10:01:21.640Z,2.20
2022-11-22T10:03:55.823Z,4.83
2022-11-22T10:06:28.930Z,3.20
2022-11-22T10:09:08.037Z,5.27
2022-11-22T10:11:42.935Z,3.80
2022-11-22T10:14:22.602Z,1.13
2022-11-22T10:16:58.702Z,0.80
2022-11-22T10:19:36.061Z,0.70
2022-11-22T10:22:09.507Z,1.77
2022-11-22T10:24:38.014Z,1.10
2022-11-22T10:27:12.072Z,1.20
2022-11-22T10:29:45.105Z,1.00
2022-11-22T10:32:21.590Z,1.30
2022-11-22T10:35:07.416Z,1.10
2022-11-22T10:37:46.207Z,1.10
2022-11-22T10:40:21.655Z,1.50
2022-11-22T10:43:19.574Z,2.03
2022-11-22T10:45:51.945Z,1.50
2022-11-22T10:48:30.367Z,1.50
2022-11-22T10:51:06.698Z,2.20
2022-11-22T10:53:51.795Z,2.83
2022-11-22T10:56:27.243Z,4.23
2022-11-22T10:59:10.800Z,1.83
2022-11-22T11:01:46.572Z,2.90
2022-11-22T11:04:19.338Z,2.90
2022-11-22T11:07:11.003Z,3.03
2022-11-22T11:12:40.077Z,2.10
2022-11-22T11:15:17.926Z,2.93
2022-11-22T11:17:49.281Z,2.80
2022-11-22T11:20:26.586Z,3.00
2022-11-22T11:25:45.176Z,4.70
2022-11-22T11:28:19.099Z,3.77
2022-11-22T11:30:50.026Z,4.63
2022-11-22T11:33:26.696Z,2.97
2022-11-22T11:35:58.044Z,3.00
2022-11-22T11:38:29.002Z,2.37
2022-11-22T11:40:57.433Z,2.10
2022-11-22T11:43:27.027Z,1.87
2022-11-22T11:45:55.552Z,2.03
2022-11-22T11:48:29.239Z,1.53
2022-11-22T11:51:17.565Z,2.03
2022-11-22T11:53:55.274Z,2.10
2022-11-22T11:56:40.672Z,2.00
2022-11-22T11:59:15.278Z,4.57
2022-11-22T12:01:57.068Z,6.53
2022-11-22T12:04:29.016Z,3.80
2022-11-22T12:07:04.083Z,2.73
2022-11-22T12:09:35.790Z,3.23
2022-11-22T12:12:42.868Z,2.20
2022-11-22T12:15:20.935Z,4.03
2022-11-22T12:17:57.586Z,2.10
2022-11-22T12:20:31.838Z,1.90
2022-11-22T12:23:12.907Z,2.17
2022-11-22T12:25:42.670Z,2.40
2022-11-22T12:28:20.779Z,2.47
2022-11-22T12:30:56.415Z,2.23
2022-11-22T12:33:31.892Z,2.27
2022-11-22T12:36:01.928Z,2.43
2022-11-22T12:38:35.446Z,2.50
2022-11-22T12:41:07.432Z,2.30
2022-11-22T12:43:39.140Z,3.33
2022-11-22T12:46:12.240Z,2.47
2022-11-22T12:48:48.870Z,2.57
2022-11-22T12:51:24.787Z,3.50
2022-11-22T12:53:56.949Z,3.10
2022-11-22T12:56:33.802Z,2.50
2022-11-22T12:59:09.852Z,2.33
2022-11-22T13:01:45.633Z,2.40
2022-11-22T13:04:20.580Z,2.50
2022-11-22T13:06:58.008Z,2.50
2022-11-22T13:09:33.610Z,2.63
2022-11-22T13:12:06.884Z,2.83
2022-11-22T13:14:38.283Z,2.07
2022-11-22T13:17:10.313Z,2.47
2022-11-22T13:19:47.114Z,2.50
2022-11-22T13:22:20.679Z,2.40
2022-11-22T13:25:06.412Z,4.23
2022-11-22T13:27:38.149Z,2.50
2022-11-22T13:30:19.185Z,2.17
2022-11-22T13:32:51.272Z,2.33
2022-11-22T13:35:27.443Z,4.00
2022-11-22T13:37:58.614Z,5.20
2022-11-22T13:40:30.484Z,4.40
2022-11-22T13:43:34.514Z,4.30
2022-11-22T13:46:05.008Z,4.47
2022-11-22T13:49:14.508Z,5.70
2022-11-22T13:51:57.196Z,7.27
2022-11-22T13:55:00.822Z,4.73
2022-11-22T13:57:34.863Z,8.87
2022-11-22T14:00:45.861Z,9.97
2022-11-22T14:03:38.634Z,10.87
2022-11-22T14:06:31.026Z,11.67
2022-11-22T14:09:29.430Z,12.57
2022-11-22T14:12:28.166Z,7.77
2022-11-22T14:15:22.178Z,7.03
2022-11-22T14:18:00.953Z,5.23
2022-11-22T14:20:49.802Z,6.77
2022-11-22T14:23:29.703Z,11.97
2022-11-22T14:26:10.816Z,9.70
2022-11-22T14:29:11.690Z,5.13
2022-11-22T14:31:42.066Z,8.37
2022-11-22T14:34:21.470Z,7.60
2022-11-22T14:37:23.373Z,5.33
2022-11-22T14:40:13.113Z,7.53
2022-11-22T14:42:53.139Z,13.07
2022-11-22T14:45:26.298Z,16.70
2022-11-22T14:48:14.381Z,22.47
2022-11-22T14:50:45.659Z,22.73
2022-11-22T14:53:24.252Z,19.50
2022-11-22T14:55:57.656Z,20.23
2022-11-22T14:58:31.229Z,19.70
2022-11-22T15:01:29.354Z,14.17
2022-11-22T15:09:17.683Z,5.70
2022-11-22T15:09:20.355Z,9.87
2022-11-22T15:10:45.813Z,5.60
2022-11-22T15:13:29.080Z,6.63
2022-11-22T15:59:23.004Z,17.83
2022-11-22T16:01:51.540Z,14.57
2022-11-22T16:04:24.250Z,11.73
2022-11-22T16:06:53.968Z,10.27
2022-11-22T16:09:28.256Z,6.40
2022-11-22T16:12:02.405Z,6.83
2022-11-22T16:14:49.639Z,16.90
2022-11-22T16:17:29.875Z,13.20
2022-11-22T16:20:26.558Z,8.03
2022-11-22T16:23:20.044Z,15.00
2022-11-22T16:25:50.814Z,20.77
2022-11-22T16:28:28.580Z,15.43
2022-11-22T16:30:58.915Z,9.13
2022-11-22T16:33:27.456Z,6.83
2022-11-22T16:35:57.018Z,5.30
2022-11-22T16:38:26.222Z,7.23
2022-11-22T16:40:55.840Z,9.53
2022-11-22T16:43:27.179Z,11.80
2022-11-22T16:45:56.406Z,13.23
2022-11-22T16:48:32.915Z,12.93
2022-11-22T16:51:05.024Z,7.47
2022-11-22T16:53:41.582Z,6.47
2022-11-22T16:56:15.226Z,5.47
2022-11-22T16:58:45.557Z,5.73
2022-11-22T17:01:17.172Z,6.90
2022-11-22T17:03:47.212Z,6.47
2022-11-22T17:06:18.661Z,6.17
2022-11-22T17:08:47.816Z,6.70
2022-11-22T17:11:21.064Z,6.80
2022-11-22T17:13:51.621Z,10.30
2022-11-22T17:16:20.155Z,10.90
2022-11-22T17:18:49.608Z,8.80
2022-11-22T17:21:22.520Z,8.30
2022-11-22T17:23:51.475Z,6.87
2022-11-22T17:26:19.829Z,5.83
2022-11-22T17:28:48.320Z,8.43
2022-11-22T17:31:20.780Z,6.27
2022-11-22T17:33:51.719Z,6.13
2022-11-22T17:36:28.700Z,7.47
2022-11-22T17:38:57.353Z,7.73
2022-11-22T17:41:26.093Z,9.77
2022-11-22T17:43:54.942Z,7.40
2022-11-22T17:46:24.836Z,7.27
2022-11-22T17:48:54.146Z,8.10
2022-11-22T17:51:23.153Z,10.17
2022-11-22T17:53:52.866Z,10.33
2022-11-22T17:56:21.759Z,9.50
2022-11-22T17:58:50.194Z,8.63
2022-11-22T18:01:20.502Z,9.67
2022-11-22T18:03:52.179Z,11.00
2022-11-22T18:06:23.659Z,14.03
2022-11-22T18:08:53.127Z,16.13
2022-11-22T18:11:23.447Z,18.13
2022-11-22T18:13:52.913Z,16.80
2022-11-22T18:16:28.379Z,14.63
2022-11-22T18:19:00.871Z,12.87
2022-11-22T18:21:32.406Z,10.30
2022-11-22T18:24:01.727Z,8.13
2022-11-22T18:26:45.899Z,9.17
2022-11-22T18:32:04.049Z,20.07
2022-11-22T18:34:34.035Z,20.67
2022-11-22T18:37:04.153Z,19.97
2022-11-22T18:39:36.584Z,14.63
2022-11-22T18:42:06.270Z,10.80
2022-11-22T18:44:35.064Z,9.20
2022-11-22T18:47:03.945Z,9.40
2022-11-22T18:49:34.026Z,10.07
2022-11-22T18:52:03.869Z,10.10
2022-11-22T18:54:32.675Z,12.40
2022-11-22T18:57:01.477Z,27.53
2022-11-22T18:59:30.303Z,37.73
2022-11-22T19:01:58.716Z,32.90
2022-11-22T19:04:28.026Z,29.43
2022-11-22T19:06:58.632Z,15.57
2022-11-22T19:09:27.183Z,14.03
2022-11-22T19:11:58.710Z,21.90
2022-11-22T19:14:29.323Z,36.27
2022-11-22T19:16:58.181Z,38.30
2022-11-22T19:19:29.342Z,37.03
2022-11-22T19:21:59.322Z,43.80
2022-11-22T19:24:27.923Z,38.73
2022-11-22T19:26:56.575Z,33.07
2022-11-22T19:29:25.114Z,33.63
2022-11-22T19:31:54.079Z,29.03
2022-11-22T19:34:22.596Z,25.47
2022-11-22T19:36:51.034Z,18.83
2022-11-22T19:39:20.877Z,26.50
2022-11-22T19:41:49.288Z,26.57
2022-11-22T19:44:17.609Z,21.23
2022-11-22T19:46:46.176Z,18.47
2022-11-22T19:49:14.649Z,17.53
2022-11-22T19:51:43.007Z,36.83
2022-11-22T19:54:11.500Z,40.17
2022-11-22T19:56:41.298Z,23.20
2022-11-22T19:59:13.171Z,15.77
2022-11-22T20:01:41.555Z,15.43
2022-11-22T20:04:10.308Z,15.27
2022-11-22T20:06:38.775Z,17.83
2022-11-22T20:09:09.342Z,22.70
2022-11-22T20:11:38.737Z,22.87
2022-11-22T20:14:09.472Z,22.53
2022-11-22T20:16:41.343Z,22.63
2022-11-22T20:19:11.637Z,32.27
2022-11-22T20:21:41.717Z,32.00
2022-11-22T20:24:11.789Z,21.63
2022-11-22T20:26:40.712Z,18.00
2022-11-22T20:29:15.640Z,14.07
2022-11-22T20:31:44.243Z,13.50
2022-11-22T20:34:15.616Z,15.80
2022-11-22T20:36:45.090Z,20.43
2022-11-22T20:42:33.641Z,19.70
2022-11-22T20:45:01.856Z,17.83
2022-11-22T20:47:35.187Z,17.50
2022-11-22T20:50:05.585Z,17.73
2022-11-22T20:52:35.654Z,14.70
2022-11-22T20:55:05.466Z,11.30
2022-11-22T20:57:34.787Z,10.47
2022-11-22T21:00:10.168Z,11.07
2022-11-22T21:02:39.190Z,7.90
2022-11-22T21:05:12.525Z,7.53
2022-11-22T21:07:42.182Z,7.87
2022-11-22T21:10:20.142Z,7.27
2022-11-22T21:12:49.273Z,6.87
2022-11-22T21:15:19.842Z,6.47
2022-11-22T21:18:17.146Z,5.77
2022-11-22T21:20:38.591Z,6.23
2022-11-22T21:23:11.558Z,6.13
2022-11-22T21:25:41.288Z,5.37
2022-11-22T21:28:09.849Z,5.83
2022-11-22T21:30:41.295Z,5.67
2022-11-22T21:33:11.066Z,5.10
2022-11-22T21:35:42.734Z,9.70
2022-11-22T21:38:17.144Z,9.73
2022-11-22T21:40:58.371Z,8.93
2022-11-22T21:43:35.513Z,10.10
2022-11-22T21:46:06.145Z,11.03
2022-11-22T21:48:34.864Z,9.67
2022-11-22T21:51:04.114Z,8.93
2022-11-22T21:53:33.735Z,9.10
2022-11-22T21:56:04.135Z,6.17
2022-11-22T21:58:33.507Z,6.17
2022-11-22T22:01:09.560Z,5.90
2022-11-22T22:03:44.085Z,6.27
2022-11-22T22:06:12.824Z,8.03
2022-11-22T22:08:43.160Z,6.50
2022-11-22T22:11:12.880Z,6.70
2022-11-22T22:13:41.383Z,6.27
2022-11-22T22:16:15.819Z,6.03
2022-11-22T22:18:47.308Z,6.73
2022-11-22T22:21:16.544Z,7.07
2022-11-22T22:23:46.105Z,6.77
2022-11-22T22:26:17.147Z,6.70
2022-11-22T22:28:46.198Z,7.37
2022-11-22T22:31:17.297Z,8.90
2022-11-22T22:33:47.774Z,8.27
2022-11-22T22:36:16.367Z,6.87
2022-11-22T22:38:45.904Z,6.00
2022-11-22T22:41:15.450Z,5.50
2022-11-22T22:43:45.353Z,5.07
2022-11-22T22:46:16.047Z,4.87
2022-11-22T22:48:46.599Z,5.57
2022-11-22T22:51:16.331Z,5.13
2022-11-22T22:53:46.736Z,4.70
2022-11-22T22:56:16.886Z,4.93
2022-11-22T22:58:45.472Z,4.67
2022-11-22T23:01:17.506Z,5.50
2022-11-22T23:03:50.983Z,8.17
2022-11-22T23:06:21.554Z,8.93
2022-11-22T23:08:52.123Z,7.40
2022-11-22T23:11:44.145Z,6.67
2022-11-22T23:14:13.141Z,6.83
2022-11-22T23:16:41.838Z,6.80
2022-11-22T23:19:11.837Z,7.10
2022-11-22T23:21:40.986Z,6.50
2022-11-22T23:24:10.487Z,6.63
2022-11-22T23:26:39.080Z,5.80
2022-11-22T23:29:07.545Z,5.80
2022-11-22T23:31:36.126Z,5.30
2022-11-22T23:34:04.560Z,4.87
2022-11-22T23:36:40.236Z,5.20
2022-11-22T23:39:09.871Z,5.27
2022-11-22T23:41:38.446Z,5.03
2022-11-22T23:44:07.329Z,5.57
2022-11-22T23:46:35.747Z,6.50
2022-11-22T23:49:06.100Z,6.50
2022-11-22T23:51:37.429Z,6.10
2022-11-22T23:54:07.443Z,5.60
2022-11-22T23:56:37.268Z,6.63
2022-11-22T23:59:06.373Z,6.23
